Time;durP1;ratioP1;P1;durP2;ratioP2;P2;SDS_P1;SDS_P2;PMS_P1;PMS_P2;Temp;Humidity;BMP_temperature;BMP_pressure;BME280_temperature;BME280_humidity;BME280_pressure;Samples;Min_cycle;Max_cycle;Signal;HPM_P1;HPM_P2
2020/12/31 00:01:52;;;;;;;31.65;14.88;;;7.20;96.50;;;;;;5070680;28;20032;-71
2020/12/31 00:04:17;;;;;;;25.55;14.27;;;7.10;96.60;;;;;;5071393;28;20036;-70
2020/12/31 00:06:43;;;;;;;28.38;14.80;;;7.10;96.70;;;;;;5071372;28;20392;-71
2020/12/31 00:09:09;;;;;;;27.15;14.15;;;7.20;96.70;;;;;;5071736;28;20032;-70
2020/12/31 00:11:35;;;;;;;24.35;14.57;;;7.20;96.50;;;;;;5073167;28;20048;-71
2020/12/31 00:14:07;;;;;;;29.00;15.13;;;7.20;96.40;;;;;;5070544;28;20064;-71
2020/12/31 00:16:36;;;;;;;25.92;14.88;;;7.10;96.40;;;;;;5071525;28;20445;-71
2020/12/31 00:19:03;;;;;;;26.92;14.13;;;7.10;96.50;;;;;;5071142;28;20040;-71
2020/12/31 00:21:29;;;;;;;22.80;13.85;;;6.90;96.50;;;;;;5071161;28;20041;-72
2020/12/31 00:23:55;;;;;;;24.38;14.40;;;6.90;96.60;;;;;;5071740;28;20021;-72
2020/12/31 00:26:20;;;;;;;25.42;13.98;;;7.00;96.60;;;;;;5070333;28;20048;-71
2020/12/31 00:28:46;;;;;;;26.02;14.13;;;6.80;96.60;;;;;;5070896;28;20032;-72
2020/12/31 00:31:12;;;;;;;25.52;14.50;;;6.80;96.80;;;;;;5071229;28;20028;-71
2020/12/31 00:33:37;;;;;;;25.60;13.68;;;6.90;96.60;;;;;;5070833;28;20037;-71
2020/12/31 00:36:03;;;;;;;23.42;13.02;;;6.80;96.70;;;;;;5071259;28;20161;-71
2020/12/31 00:38:29;;;;;;;25.48;12.90;;;6.80;96.60;;;;;;5069895;28;20059;-70
2020/12/31 00:40:55;;;;;;;28.05;13.00;;;6.70;96.70;;;;;;5071030;28;20040;-71
2020/12/31 00:43:21;;;;;;;26.02;13.95;;;6.60;96.70;;;;;;5071111;28;20123;-71
2020/12/31 00:45:47;;;;;;;23.75;12.68;;;6.70;96.70;;;;;;5071283;28;20024;-71
2020/12/31 00:48:12;;;;;;;21.50;12.00;;;6.70;96.70;;;;;;5070798;28;20400;-71
2020/12/31 00:50:38;;;;;;;25.88;13.60;;;6.70;96.60;;;;;;5071549;28;20032;-70
2020/12/31 00:53:04;;;;;;;27.42;15.48;;;6.70;96.80;;;;;;5070834;28;20458;-70
2020/12/31 00:55:29;;;;;;;28.70;12.63;;;6.60;96.70;;;;;;5070929;28;20032;-72
2020/12/31 00:57:55;;;;;;;25.58;11.93;;;6.60;96.70;;;;;;5070876;28;20458;-71
2020/12/31 01:00:21;;;;;;;23.35;12.30;;;6.60;96.60;;;;;;5070786;28;20435;-72
2020/12/31 01:02:46;;;;;;;23.83;12.30;;;6.50;96.60;;;;;;5072263;28;20461;-70
2020/12/31 01:05:12;;;;;;;23.15;11.95;;;6.50;96.70;;;;;;5070832;28;20079;-70
2020/12/31 01:07:38;;;;;;;23.95;11.70;;;6.50;96.70;;;;;;5070618;28;20041;-70
2020/12/31 01:10:09;;;;;;;21.55;12.25;;;6.50;96.70;;;;;;5070847;28;20025;-72
2020/12/31 01:12:34;;;;;;;21.42;11.73;;;6.50;96.70;;;;;;5070563;28;20028;-72
2020/12/31 01:15:00;;;;;;;23.70;12.20;;;6.60;96.60;;;;;;5075230;28;20016;-71
2020/12/31 01:17:26;;;;;;;24.75;11.95;;;6.50;96.60;;;;;;5074292;28;20028;-70
2020/12/31 01:19:53;;;;;;;23.83;11.95;;;6.50;96.60;;;;;;5074464;28;20036;-71
2020/12/31 01:22:19;;;;;;;24.60;12.02;;;6.50;96.60;;;;;;5074363;28;20079;-70
2020/12/31 01:24:45;;;;;;;21.92;11.90;;;6.40;96.60;;;;;;5068727;28;20060;-70
2020/12/31 01:27:11;;;;;;;23.15;11.75;;;6.50;96.70;;;;;;5054666;28;20043;-70
2020/12/31 01:29:37;;;;;;;24.52;11.95;;;6.50;96.60;;;;;;5075850;28;20458;-72
2020/12/31 01:32:03;;;;;;;26.27;13.13;;;6.50;96.50;;;;;;5074024;28;20051;-71
2020/12/31 01:34:29;;;;;;;19.90;11.00;;;6.50;96.50;;;;;;5073633;28;20037;-72
2020/12/31 01:36:55;;;;;;;21.33;10.60;;;6.50;96.50;;;;;;5073749;28;20048;-72
2020/12/31 01:39:21;;;;;;;20.25;10.77;;;6.50;96.40;;;;;;5073753;28;20043;-71
2020/12/31 01:41:48;;;;;;;22.45;11.20;;;6.50;96.30;;;;;;5074394;28;20111;-71
2020/12/31 01:44:13;;;;;;;21.63;10.65;;;6.50;96.40;;;;;;5073672;28;20124;-71
2020/12/31 01:46:43;;;;;;;23.77;11.50;;;6.50;96.30;;;;;;5073931;28;20060;-71
2020/12/31 01:49:09;;;;;;;22.95;11.38;;;6.40;96.40;;;;;;5072734;28;20086;-71
2020/12/31 01:51:35;;;;;;;20.13;11.00;;;6.40;96.40;;;;;;5073746;28;20033;-71
2020/12/31 01:54:02;;;;;;;22.75;10.30;;;6.40;96.40;;;;;;5075244;28;20488;-72
2020/12/31 01:56:30;;;;;;;19.70;11.13;;;6.40;96.40;;;;;;5073883;28;20033;-72
2020/12/31 01:58:56;;;;;;;19.65;10.82;;;6.40;96.40;;;;;;5072316;28;20047;-71
2020/12/31 02:01:23;;;;;;;20.92;10.30;;;6.30;96.40;;;;;;5073337;28;20446;-72
2020/12/31 02:03:50;;;;;;;16.75;10.32;;;6.20;96.60;;;;;;5072568;28;20036;-71
2020/12/31 02:06:16;;;;;;;19.35;9.95;;;6.10;96.60;;;;;;5073200;28;20029;-71
2020/12/31 02:08:45;;;;;;;20.95;9.50;;;6.10;96.50;;;;;;5074823;28;20032;-72
2020/12/31 02:11:18;;;;;;;19.38;10.48;;;6.00;96.50;;;;;;5073512;28;20098;-72
2020/12/31 02:13:45;;;;;;;26.85;10.23;;;6.00;96.60;;;;;;5073174;28;20041;-70
2020/12/31 02:16:19;;;;;;;18.27;9.65;;;6.00;96.60;;;;;;5073173;28;20043;-71
2020/12/31 02:19:00;;;;;;;18.23;9.68;;;6.00;96.50;;;;;;5072847;28;20477;-71
2020/12/31 02:21:27;;;;;;;20.75;9.77;;;5.90;96.60;;;;;;5073058;28;20566;-71
2020/12/31 02:23:54;;;;;;;19.50;9.70;;;6.00;96.60;;;;;;5074464;28;20214;-71
2020/12/31 02:26:21;;;;;;;18.55;10.20;;;6.00;96.60;;;;;;5073026;28;20040;-71
2020/12/31 02:28:47;;;;;;;17.63;9.73;;;5.90;96.50;;;;;;5072969;28;20036;-70
2020/12/31 02:31:14;;;;;;;21.15;10.27;;;5.90;96.60;;;;;;5073241;28;20485;-71
2020/12/31 02:33:43;;;;;;;16.83;9.73;;;5.90;96.50;;;;;;5072382;28;20462;-71
2020/12/31 02:36:09;;;;;;;18.48;9.40;;;5.80;96.50;;;;;;5072651;28;20043;-71
2020/12/31 02:38:34;;;;;;;18.42;9.55;;;5.70;96.60;;;;;;5074110;28;20111;-70
2020/12/31 02:41:00;;;;;;;21.73;9.73;;;5.70;96.60;;;;;;5072603;28;20041;-70
2020/12/31 02:43:26;;;;;;;17.52;9.85;;;5.80;96.70;;;;;;5071502;28;20120;-72
2020/12/31 02:45:51;;;;;;;18.05;9.60;;;5.70;96.60;;;;;;5072684;28;20036;-70
2020/12/31 02:48:17;;;;;;;19.58;8.65;;;5.70;96.60;;;;;;5072132;28;20033;-70
2020/12/31 02:50:42;;;;;;;16.10;8.73;;;5.80;96.60;;;;;;5074014;28;20028;-70
2020/12/31 02:53:08;;;;;;;15.60;8.70;;;5.70;96.60;;;;;;5072430;28;20036;-71
2020/12/31 02:55:34;;;;;;;20.08;9.07;;;5.60;96.60;;;;;;5072507;28;20469;-70
2020/12/31 02:57:59;;;;;;;19.33;9.00;;;5.50;96.80;;;;;;5072347;28;20040;-70
2020/12/31 03:00:25;;;;;;;15.40;8.48;;;5.50;96.80;;;;;;5072333;28;20027;-71
2020/12/31 03:02:51;;;;;;;19.58;9.15;;;5.40;96.80;;;;;;5073939;28;20025;-70
2020/12/31 03:05:17;;;;;;;15.70;8.65;;;5.50;96.90;;;;;;5071915;28;20044;-70
2020/12/31 03:07:42;;;;;;;15.40;8.40;;;5.40;96.80;;;;;;5072463;28;20051;-71
2020/12/31 03:10:08;;;;;;;17.00;8.57;;;5.40;96.90;;;;;;5071263;28;20347;-71
2020/12/31 03:12:36;;;;;;;15.95;8.20;;;5.30;96.80;;;;;;5072013;28;20056;-70
2020/12/31 03:15:10;;;;;;;17.80;8.65;;;5.30;96.80;;;;;;5073501;28;20017;-70
2020/12/31 03:17:39;;;;;;;16.85;8.27;;;5.40;96.80;;;;;;5072157;28;20032;-70
2020/12/31 03:20:06;;;;;;;15.85;8.20;;;5.30;96.80;;;;;;5070387;28;20119;-70
2020/12/31 03:22:32;;;;;;;13.40;7.93;;;5.30;96.90;;;;;;5071950;28;20485;-70
2020/12/31 03:24:58;;;;;;;16.02;8.70;;;5.30;96.80;;;;;;5071793;28;20067;-71
2020/12/31 03:27:24;;;;;;;14.15;7.70;;;5.30;96.90;;;;;;5071942;28;20028;-70
2020/12/31 03:29:49;;;;;;;15.75;7.90;;;5.30;96.80;;;;;;5073360;28;20021;-70
2020/12/31 03:32:15;;;;;;;17.48;8.35;;;5.30;96.70;;;;;;5072037;28;20036;-70
2020/12/31 03:34:41;;;;;;;16.45;8.35;;;5.30;96.70;;;;;;5071914;28;20036;-71
2020/12/31 03:37:07;;;;;;;17.75;7.88;;;5.40;96.80;;;;;;5070500;28;20394;-71
2020/12/31 03:39:33;;;;;;;15.68;7.28;;;5.40;96.70;;;;;;5071349;28;20497;-71
2020/12/31 03:41:59;;;;;;;13.85;7.88;;;5.50;96.60;;;;;;5072387;28;20032;-71
2020/12/31 03:44:24;;;;;;;13.07;7.18;;;5.50;96.50;;;;;;5071570;28;20041;-71
2020/12/31 03:46:50;;;;;;;14.35;7.43;;;5.50;96.60;;;;;;5071770;28;20056;-71
2020/12/31 03:49:15;;;;;;;13.98;7.13;;;5.60;96.50;;;;;;5071584;28;20481;-70
2020/12/31 03:51:41;;;;;;;13.05;6.35;;;5.50;96.40;;;;;;5071545;28;20365;-71
2020/12/31 03:54:06;;;;;;;15.32;7.60;;;5.50;96.40;;;;;;5071335;28;20044;-70
2020/12/31 03:56:32;;;;;;;14.48;7.60;;;5.60;96.40;;;;;;5072174;28;20044;-70
2020/12/31 03:58:58;;;;;;;13.35;7.53;;;5.50;96.30;;;;;;5071302;28;20117;-70
2020/12/31 04:01:31;;;;;;;15.85;6.72;;;5.50;96.40;;;;;;5071772;28;20031;-70
2020/12/31 04:03:57;;;;;;;14.73;7.70;;;5.60;96.40;;;;;;5071451;28;20040;-70
2020/12/31 04:06:22;;;;;;;11.48;6.63;;;5.50;96.30;;;;;;5071466;28;20017;-70
2020/12/31 04:08:48;;;;;;;10.80;6.57;;;5.50;96.20;;;;;;5072868;28;20407;-70
2020/12/31 04:11:14;;;;;;;13.55;6.57;;;5.50;96.30;;;;;;5071338;28;20078;-72
2020/12/31 04:13:40;;;;;;;11.00;6.47;;;5.50;96.20;;;;;;5071352;28;20458;-70
2020/12/31 04:16:06;;;;;;;9.35;5.70;;;5.60;96.20;;;;;;5071316;28;20048;-70
2020/12/31 04:18:31;;;;;;;9.60;6.20;;;5.60;96.10;;;;;;5066934;28;20052;-70
2020/12/31 04:20:57;;;;;;;11.05;5.97;;;5.60;96.20;;;;;;5052834;28;20402;-70
2020/12/31 04:23:23;;;;;;;13.60;5.97;;;5.80;96.10;;;;;;5069072;28;20071;-71
2020/12/31 04:25:50;;;;;;;10.65;5.65;;;5.60;96.00;;;;;;5057117;28;20045;-70
2020/12/31 04:28:16;;;;;;;8.73;4.93;;;5.60;96.10;;;;;;5051209;28;20367;-70
2020/12/31 04:30:44;;;;;;;13.60;5.53;;;5.50;96.10;;;;;;5051237;28;20026;-70
2020/12/31 04:33:10;;;;;;;8.57;5.10;;;5.70;96.10;;;;;;5051549;28;20021;-70
2020/12/31 04:35:35;;;;;;;11.30;5.78;;;5.60;96.00;;;;;;5072502;28;20401;-70
2020/12/31 04:38:01;;;;;;;9.98;4.70;;;5.70;96.00;;;;;;5068255;28;20036;-71
2020/12/31 04:40:27;;;;;;;7.00;4.72;;;5.80;95.90;;;;;;5070835;28;20036;-69
2020/12/31 04:42:52;;;;;;;9.45;4.88;;;5.80;95.70;;;;;;5070240;28;20055;-71
2020/12/31 04:45:21;;;;;;;9.63;4.95;;;5.70;95.70;;;;;;5070854;28;20099;-70
2020/12/31 04:48:22;;;;;;;8.38;5.13;;;5.80;95.80;;;;;;5073788;28;20039;-71
2020/12/31 04:50:48;;;;;;;8.27;4.82;;;5.80;95.70;;;;;;5075013;28;20028;-70
2020/12/31 04:53:14;;;;;;;8.73;4.68;;;5.70;95.70;;;;;;5074850;28;20093;-70
2020/12/31 04:55:41;;;;;;;8.52;4.10;;;5.80;95.60;;;;;;5074790;28;20476;-71
2020/12/31 04:58:12;;;;;;;9.30;4.15;;;5.80;95.70;;;;;;5073475;28;20412;-71
2020/12/31 05:00:38;;;;;;;7.63;4.03;;;5.80;95.70;;;;;;5073476;28;20074;-71
2020/12/31 05:03:05;;;;;;;9.02;3.95;;;5.70;95.60;;;;;;5075970;28;20032;-69
2020/12/31 05:05:35;;;;;;;7.53;4.30;;;5.70;95.70;;;;;;5054636;28;20368;-70
2020/12/31 05:08:02;;;;;;;7.65;4.18;;;5.70;95.60;;;;;;5054586;28;20052;-70
2020/12/31 05:10:29;;;;;;;6.93;3.72;;;5.80;95.60;;;;;;5054426;28;20037;-70
2020/12/31 05:12:58;;;;;;;9.18;3.67;;;5.80;95.60;;;;;;5054416;28;20351;-72
2020/12/31 05:15:38;;;;;;;9.60;3.65;;;5.90;95.70;;;;;;5054231;28;20451;-69
2020/12/31 05:18:24;;;;;;;7.30;3.92;;;5.90;95.50;;;;;;5055759;28;20029;-70
2020/12/31 05:20:51;;;;;;;6.15;3.60;;;5.80;95.50;;;;;;5054746;28;20119;-70
2020/12/31 05:23:21;;;;;;;6.20;3.80;;;5.80;95.60;;;;;;5054055;28;20489;-71
2020/12/31 05:25:48;;;;;;;5.88;3.58;;;5.90;95.60;;;;;;5054229;28;20091;-71
2020/12/31 05:28:40;;;;;;;7.35;3.58;;;5.80;95.60;;;;;;5054276;28;20044;-70
2020/12/31 05:31:10;;;;;;;8.23;4.07;;;5.90;95.50;;;;;;5052180;28;20363;-71
2020/12/31 05:33:40;;;;;;;6.95;3.35;;;5.80;95.50;;;;;;5049944;28;20458;-70
2020/12/31 05:36:20;;;;;;;5.57;3.78;;;5.80;95.50;;;;;;5053277;28;20075;-70
2020/12/31 05:38:54;;;;;;;9.35;4.22;;;5.80;95.50;;;;;;5075104;28;20493;-69
2020/12/31 05:41:21;;;;;;;5.63;3.60;;;5.70;95.60;;;;;;5073069;28;20555;-70
2020/12/31 05:43:53;;;;;;;7.22;3.97;;;5.80;95.60;;;;;;5073809;28;20041;-69
2020/12/31 05:46:19;;;;;;;6.43;3.70;;;5.70;95.70;;;;;;5073897;28;20032;-70
2020/12/31 05:48:53;;;;;;;5.97;3.60;;;5.70;95.80;;;;;;5073623;28;20458;-72
2020/12/31 05:51:24;;;;;;;6.60;3.70;;;5.80;95.80;;;;;;5073624;28;20127;-71
2020/12/31 05:53:51;;;;;;;6.63;3.97;;;5.70;95.80;;;;;;5075076;28;20453;-72
2020/12/31 05:56:18;;;;;;;6.43;3.85;;;5.70;95.70;;;;;;5072216;28;20062;-70
2020/12/31 05:58:45;;;;;;;5.43;3.13;;;5.80;95.80;;;;;;5073167;28;20398;-70
2020/12/31 06:01:14;;;;;;;10.25;4.45;;;5.70;96.00;;;;;;5073216;28;20033;-71
2020/12/31 06:03:45;;;;;;;;;;;5.70;95.90;;;;;;5072947;28;20029;-71
2020/12/31 06:06:15;;;;;;;7.05;4.32;;;5.60;96.00;;;;;;5073453;28;20250;-70
2020/12/31 06:09:03;;;;;;;10.60;3.90;;;5.70;96.00;;;;;;5074959;28;20025;-70
2020/12/31 06:11:34;;;;;;;6.90;3.92;;;5.70;95.90;;;;;;5073212;28;20040;-70
2020/12/31 06:14:03;;;;;;;8.30;4.18;;;5.70;96.00;;;;;;5073377;28;20070;-70
2020/12/31 06:16:36;;;;;;;7.03;4.15;;;5.60;95.90;;;;;;5073142;28;20044;-70
2020/12/31 06:19:25;;;;;;;7.50;4.15;;;5.60;96.10;;;;;;5073350;28;20078;-69
2020/12/31 06:21:59;;;;;;;8.80;4.10;;;5.60;96.10;;;;;;5072165;28;20083;-70
2020/12/31 06:24:40;;;;;;;8.77;4.63;;;5.60;96.10;;;;;;5073035;28;20025;-69
2020/12/31 06:27:18;;;;;;;8.80;4.15;;;5.50;96.00;;;;;;5074684;28;20029;-70
2020/12/31 06:29:47;;;;;;;9.60;4.97;;;5.60;96.10;;;;;;5073368;28;20036;-70
2020/12/31 06:32:31;;;;;;;7.55;4.60;;;5.60;96.00;;;;;;5073069;28;20028;-69
2020/12/31 06:35:05;;;;;;;9.25;4.75;;;5.70;96.00;;;;;;5072852;28;20035;-71
2020/12/31 06:37:31;;;;;;;7.15;4.50;;;5.60;96.00;;;;;;5072821;28;20041;-70
2020/12/31 06:40:23;;;;;;;8.27;5.22;;;5.60;96.10;;;;;;5071587;28;20131;-71
2020/12/31 06:43:11;;;;;;;8.52;4.97;;;5.60;96.10;;;;;;5072728;28;20040;-71
2020/12/31 06:45:45;;;;;;;10.65;5.20;;;5.60;96.20;;;;;;5072843;28;20048;-70
2020/12/31 06:48:25;;;;;;;11.60;5.65;;;5.70;96.30;;;;;;5071620;28;20353;-71
2020/12/31 06:50:56;;;;;;;10.13;5.07;;;5.70;96.30;;;;;;5073223;28;20063;-70
2020/12/31 06:53:45;;;;;;;9.40;5.57;;;5.60;96.30;;;;;;5072683;28;20041;-70
2020/12/31 06:56:11;;;;;;;12.90;5.30;;;5.60;96.40;;;;;;5072562;28;20037;-71
2020/12/31 06:58:38;;;;;;;10.25;5.78;;;5.50;96.40;;;;;;5072302;28;20047;-70
2020/12/31 07:01:26;;;;;;;10.60;5.28;;;5.60;96.50;;;;;;5070866;28;20141;-70
2020/12/31 07:03:53;;;;;;;9.68;5.70;;;5.60;96.50;;;;;;5072282;28;20477;-70
2020/12/31 07:06:22;;;;;;;11.05;5.38;;;5.50;96.60;;;;;;5072325;28;20029;-70
2020/12/31 07:08:51;;;;;;;12.63;5.63;;;5.50;96.60;;;;;;5073673;28;20465;-69
2020/12/31 07:11:35;;;;;;;10.48;5.85;;;5.60;96.70;;;;;;5071939;28;20084;-70
2020/12/31 07:14:08;;;;;;;10.27;5.75;;;5.60;96.80;;;;;;5071990;28;20037;-71
2020/12/31 07:17:03;;;;;;;11.93;5.40;;;5.50;96.70;;;;;;5072007;28;20127;-70
2020/12/31 07:19:36;;;;;;;10.52;5.78;;;5.60;96.80;;;;;;5071624;28;20056;-70
2020/12/31 07:22:10;;;;;;;13.15;6.80;;;5.50;96.80;;;;;;5072029;28;20036;-70
2020/12/31 07:25:10;;;;;;;12.13;6.35;;;5.50;96.80;;;;;;5072152;28;20466;-72
2020/12/31 07:27:38;;;;;;;11.95;6.18;;;5.50;96.90;;;;;;5071510;28;20044;-70
2020/12/31 07:30:24;;;;;;;11.50;5.93;;;5.50;96.90;;;;;;5072369;28;20028;-71
2020/12/31 07:32:54;;;;;;;12.73;6.35;;;5.40;96.90;;;;;;5071823;28;20051;-71
2020/12/31 07:35:28;;;;;;;13.98;6.10;;;5.50;97.20;;;;;;5071934;28;20028;-70
2020/12/31 07:37:57;;;;;;;13.98;6.70;;;5.50;96.90;;;;;;5071838;28;20041;-72
2020/12/31 07:40:32;;;;;;;10.13;5.93;;;5.50;96.90;;;;;;5071864;28;20454;-72
2020/12/31 07:42:58;;;;;;;12.50;6.53;;;5.50;96.90;;;;;;5071455;28;20429;-72
2020/12/31 07:45:25;;;;;;;10.82;6.30;;;5.50;96.90;;;;;;5070649;28;20020;-71
2020/12/31 07:47:53;;;;;;;10.02;6.25;;;5.60;96.80;;;;;;5073232;28;20024;-71
2020/12/31 07:50:19;;;;;;;13.70;6.35;;;5.60;96.70;;;;;;5070856;28;20032;-73
2020/12/31 07:52:46;;;;;;;11.93;6.43;;;5.50;96.70;;;;;;5071422;28;20044;-72
2020/12/31 07:55:12;;;;;;;10.57;6.03;;;5.70;96.70;;;;;;5071699;28;20057;-72
2020/12/31 07:57:38;;;;;;;8.90;5.35;;;5.60;96.50;;;;;;5070226;28;20052;-76
2020/12/31 08:00:06;;;;;;;11.15;6.28;;;5.70;96.60;;;;;;5073037;28;20063;-71
2020/12/31 08:02:32;;;;;;;13.27;6.53;;;5.80;96.50;;;;;;5071793;28;20040;-73
2020/12/31 08:04:58;;;;;;;10.20;5.95;;;5.60;96.50;;;;;;5071245;28;20033;-72
2020/12/31 08:07:23;;;;;;;11.50;6.30;;;5.50;96.60;;;;;;5071583;28;20037;-73
2020/12/31 08:09:49;;;;;;;9.75;5.75;;;5.60;96.60;;;;;;5071797;28;20040;-75
2020/12/31 08:12:15;;;;;;;10.70;5.53;;;5.60;96.70;;;;;;5071290;28;20112;-76
2020/12/31 08:14:46;;;;;;;12.05;6.00;;;5.60;96.70;;;;;;5073035;28;20025;-74
2020/12/31 08:17:13;;;;;;;13.85;6.80;;;5.60;96.60;;;;;;5071573;28;20370;-74
2020/12/31 08:19:40;;;;;;;11.85;6.43;;;5.60;96.70;;;;;;5071646;28;20131;-75
2020/12/31 08:22:16;;;;;;;11.67;6.83;;;5.70;96.60;;;;;;5070168;28;20093;-70
2020/12/31 08:24:48;;;;;;;14.75;7.88;;;5.60;96.60;;;;;;5075478;28;20090;-76
2020/12/31 08:27:21;;;;;;;13.85;6.65;;;5.60;96.60;;;;;;5069225;28;20120;-72
2020/12/31 08:29:47;;;;;;;13.20;6.20;;;5.60;96.70;;;;;;5067828;28;20032;-74
2020/12/31 08:32:24;;;;;;;10.32;6.20;;;5.70;96.80;;;;;;5059769;28;20064;-73
2020/12/31 08:34:55;;;;;;;9.77;6.22;;;5.70;96.70;;;;;;5068981;28;20063;-72
2020/12/31 08:37:27;;;;;;;11.75;6.03;;;5.70;96.60;;;;;;5074093;28;20458;-72
2020/12/31 08:39:54;;;;;;;9.52;5.65;;;5.70;96.60;;;;;;5074838;28;20036;-73
2020/12/31 08:42:22;;;;;;;13.63;6.07;;;5.80;96.60;;;;;;5074826;28;20017;-73
2020/12/31 08:44:54;;;;;;;10.35;5.93;;;5.80;96.60;;;;;;5075704;28;20127;-73
2020/12/31 08:47:22;;;;;;;11.55;6.10;;;5.80;96.50;;;;;;5071881;28;20047;-70
2020/12/31 08:49:56;;;;;;;14.05;6.88;;;5.90;96.70;;;;;;5054758;28;20483;-73
2020/12/31 08:52:24;;;;;;;10.70;6.25;;;5.90;96.80;;;;;;5044717;28;20539;-75
2020/12/31 08:55:10;;;;;;;13.45;5.78;;;5.90;96.70;;;;;;5045722;28;20482;-72
2020/12/31 08:57:37;;;;;;;16.50;7.85;;;6.00;96.50;;;;;;5053574;28;20048;-75
2020/12/31 09:00:05;;;;;;;12.07;6.68;;;6.00;96.50;;;;;;5055386;28;20063;-74
2020/12/31 09:02:31;;;;;;;12.80;7.43;;;6.00;96.40;;;;;;5071399;28;20165;-74
2020/12/31 09:05:11;;;;;;;12.07;7.07;;;6.00;96.40;;;;;;5074442;28;20272;-74
2020/12/31 09:07:37;;;;;;;12.13;6.88;;;6.00;96.50;;;;;;5073598;28;20488;-74
2020/12/31 09:10:32;;;;;;;11.68;6.65;;;6.00;96.60;;;;;;5074693;28;20032;-74
2020/12/31 09:12:59;;;;;;;11.73;6.50;;;6.00;96.40;;;;;;5064564;28;20036;-73
2020/12/31 09:15:25;;;;;;;10.50;6.45;;;6.00;96.50;;;;;;5074452;28;20021;-75
2020/12/31 09:17:51;;;;;;;13.18;6.10;;;6.00;96.60;;;;;;5075218;28;20021;-75
2020/12/31 09:20:30;;;;;;;13.10;7.28;;;6.10;96.70;;;;;;5074457;28;20040;-76
2020/12/31 09:23:09;;;;;;;10.95;6.25;;;6.10;96.60;;;;;;5073300;28;20086;-74
2020/12/31 09:25:47;;;;;;;11.93;6.50;;;6.10;96.50;;;;;;5072889;28;20444;-73
2020/12/31 09:28:13;;;;;;;10.38;6.47;;;6.10;96.60;;;;;;5073775;28;20044;-74
2020/12/31 09:30:38;;;;;;;10.93;6.47;;;6.10;96.60;;;;;;5074112;28;20040;-73
2020/12/31 09:33:04;;;;;;;12.57;7.05;;;6.10;96.50;;;;;;5075173;28;20029;-71
2020/12/31 09:35:30;;;;;;;12.77;6.85;;;6.20;96.60;;;;;;5072758;28;20037;-73
2020/12/31 09:37:57;;;;;;;12.32;7.40;;;6.20;96.50;;;;;;5071875;28;20450;-74
2020/12/31 09:40:23;;;;;;;11.30;7.40;;;6.20;96.60;;;;;;5074063;28;20048;-74
2020/12/31 09:42:49;;;;;;;11.98;7.05;;;6.10;96.40;;;;;;5072889;28;20036;-74
2020/12/31 09:45:16;;;;;;;15.35;8.18;;;6.10;96.40;;;;;;5074099;28;20434;-72
2020/12/31 09:47:41;;;;;;;18.90;9.35;;;6.10;96.40;;;;;;5075251;28;20029;-72
2020/12/31 09:50:11;;;;;;;13.30;7.22;;;6.10;96.40;;;;;;5073821;28;20128;-72
2020/12/31 09:52:39;;;;;;;11.20;6.95;;;6.20;96.40;;;;;;5073303;28;20040;-75
2020/12/31 09:55:08;;;;;;;11.88;6.78;;;6.10;96.30;;;;;;5073596;28;20036;-73
2020/12/31 09:57:35;;;;;;;12.68;6.78;;;6.20;96.30;;;;;;5071940;28;20044;-74
2020/12/31 10:00:02;;;;;;;14.73;7.30;;;6.20;96.20;;;;;;5074939;28;20032;-73
2020/12/31 10:02:28;;;;;;;15.52;7.70;;;6.20;96.10;;;;;;5073595;28;20366;-75
2020/12/31 10:04:53;;;;;;;10.13;6.28;;;6.20;96.20;;;;;;5073674;28;20044;-74
2020/12/31 10:07:19;;;;;;;12.05;7.03;;;6.30;96.20;;;;;;5073154;28;20043;-74
2020/12/31 10:09:47;;;;;;;13.38;6.90;;;6.20;96.10;;;;;;5073031;28;20185;-73
2020/12/31 10:12:14;;;;;;;17.52;8.30;;;6.20;96.10;;;;;;5073452;28;20055;-73
2020/12/31 10:14:41;;;;;;;12.02;7.68;;;6.20;96.20;;;;;;5074989;28;20016;-75
2020/12/31 10:17:07;;;;;;;13.15;7.10;;;6.30;96.30;;;;;;5073489;28;20035;-72
2020/12/31 10:19:34;;;;;;;11.32;7.15;;;6.30;96.30;;;;;;5073241;28;20043;-72
2020/12/31 10:21:59;;;;;;;16.45;7.50;;;6.30;96.20;;;;;;5073087;28;20128;-71
2020/12/31 10:24:25;;;;;;;13.00;7.55;;;6.30;96.20;;;;;;5072785;28;20024;-73
2020/12/31 10:26:51;;;;;;;19.35;9.63;;;6.30;96.30;;;;;;5074585;28;20107;-72
2020/12/31 10:29:17;;;;;;;22.25;11.65;;;6.30;96.30;;;;;;5072034;28;20454;-72
2020/12/31 10:31:48;;;;;;;11.75;6.47;;;6.30;96.40;;;;;;5072818;28;20028;-71
2020/12/31 10:34:14;;;;;;;13.05;7.30;;;6.30;96.40;;;;;;5072878;28;20079;-71
2020/12/31 10:36:39;;;;;;;11.45;7.03;;;6.30;96.50;;;;;;5070769;28;20072;-72
2020/12/31 10:39:06;;;;;;;11.00;6.63;;;6.20;96.60;;;;;;5073224;28;20060;-72
2020/12/31 10:41:31;;;;;;;11.10;6.38;;;6.30;96.70;;;;;;5073127;28;20033;-73
2020/12/31 10:44:00;;;;;;;9.77;5.60;;;6.30;96.80;;;;;;5072704;28;20039;-71
2020/12/31 10:46:27;;;;;;;10.88;6.30;;;6.40;96.60;;;;;;5072474;28;20036;-72
2020/12/31 10:48:53;;;;;;;10.52;5.80;;;6.30;96.60;;;;;;5071379;28;20160;-73
2020/12/31 10:51:19;;;;;;;13.23;6.32;;;6.30;96.60;;;;;;5072536;28;20494;-72
2020/12/31 10:53:45;;;;;;;9.43;5.97;;;6.30;96.70;;;;;;5073877;28;20097;-72
2020/12/31 10:56:17;;;;;;;8.38;5.05;;;6.40;96.70;;;;;;5072415;28;20071;-72
2020/12/31 10:58:42;;;;;;;9.27;5.70;;;6.50;96.60;;;;;;5072164;28;20036;-72
2020/12/31 11:01:08;;;;;;;9.70;5.70;;;6.40;96.60;;;;;;5072620;28;20112;-74
2020/12/31 11:03:33;;;;;;;12.18;6.07;;;6.40;96.50;;;;;;5071201;28;20459;-72
2020/12/31 11:05:59;;;;;;;9.95;5.53;;;6.40;96.80;;;;;;5073695;28;20025;-74
2020/12/31 11:08:25;;;;;;;8.07;4.60;;;6.30;96.60;;;;;;5071895;28;20047;-75
2020/12/31 11:10:50;;;;;;;10.70;5.20;;;6.40;96.60;;;;;;5071513;28;20044;-73
2020/12/31 11:13:16;;;;;;;9.25;4.93;;;6.30;96.60;;;;;;5071812;28;20037;-72
2020/12/31 11:15:42;;;;;;;7.72;5.05;;;6.30;96.60;;;;;;5071996;28;20037;-73
2020/12/31 11:18:08;;;;;;;7.85;5.32;;;6.40;96.60;;;;;;5071939;28;20461;-74
2020/12/31 11:20:34;;;;;;;9.23;4.50;;;6.40;96.60;;;;;;5073533;28;20078;-73
2020/12/31 11:23:00;;;;;;;9.10;5.32;;;6.50;96.70;;;;;;5071609;28;20032;-74
2020/12/31 11:25:25;;;;;;;6.85;4.60;;;6.40;96.50;;;;;;5071722;28;20032;-75
2020/12/31 11:27:51;;;;;;;10.30;5.38;;;6.50;96.50;;;;;;5070344;28;20044;-83
2020/12/31 11:30:17;;;;;;;6.78;4.32;;;6.50;97.20;;;;;;5071825;28;20032;-74
2020/12/31 11:32:42;;;;;;;9.93;5.57;;;6.60;96.60;;;;;;5073037;28;20090;-74
2020/12/31 11:35:08;;;;;;;8.52;4.97;;;6.50;96.40;;;;;;5071731;28;20036;-77
2020/12/31 11:37:34;;;;;;;7.65;4.53;;;6.60;96.40;;;;;;5071285;28;20398;-78
2020/12/31 11:40:04;;;;;;;10.10;5.30;;;6.60;96.30;;;;;;5070416;28;20071;-71
2020/12/31 11:42:32;;;;;;;7.63;4.43;;;6.60;96.40;;;;;;5070412;28;20123;-74
2020/12/31 11:44:58;;;;;;;;;;;6.50;96.30;;;;;;5073527;28;20131;-73
2020/12/31 11:47:24;;;;;;;6.18;3.90;;;6.60;96.40;;;;;;5071454;28;20014;-73
2020/12/31 11:49:50;;;;;;;9.13;4.65;;;6.70;96.40;;;;;;5071223;28;20407;-75
2020/12/31 11:52:15;;;;;;;6.93;3.97;;;6.60;96.20;;;;;;5071254;28;20518;-72
2020/12/31 11:54:41;;;;;;;7.25;4.25;;;6.50;96.20;;;;;;5070273;28;20354;-73
2020/12/31 11:57:07;;;;;;;7.15;4.22;;;6.70;96.30;;;;;;5070651;28;20021;-73
2020/12/31 11:59:32;;;;;;;8.25;4.53;;;6.70;96.20;;;;;;5072694;28;20363;-73
2020/12/31 12:01:58;;;;;;;6.97;4.25;;;6.60;96.10;;;;;;5070199;28;20119;-72
2020/12/31 12:04:24;;;;;;;8.75;4.30;;;6.60;96.10;;;;;;5060638;28;20048;-73
2020/12/31 12:06:54;;;;;;;7.30;3.88;;;6.60;96.10;;;;;;5051226;28;20098;-73
2020/12/31 12:09:21;;;;;;;6.40;3.42;;;6.50;96.10;;;;;;5051489;28;20425;-71
2020/12/31 12:11:47;;;;;;;8.10;3.75;;;6.60;96.00;;;;;;5052509;28;20050;-74
2020/12/31 12:14:13;;;;;;;7.93;4.35;;;6.60;96.00;;;;;;5051367;28;20041;-74
2020/12/31 12:16:40;;;;;;;7.07;3.90;;;6.60;96.00;;;;;;5051126;28;20124;-72
2020/12/31 12:19:06;;;;;;;6.03;3.90;;;6.50;96.00;;;;;;5050769;28;20125;-72
2020/12/31 12:21:32;;;;;;;6.32;3.20;;;6.60;96.00;;;;;;5050127;28;20094;-71
2020/12/31 12:23:57;;;;;;;10.55;4.10;;;6.60;95.80;;;;;;5052472;28;20029;-71
2020/12/31 12:26:31;;;;;;;10.25;5.57;;;6.50;95.70;;;;;;5051146;28;20170;-71
2020/12/31 12:28:56;;;;;;;6.50;4.25;;;6.60;96.00;;;;;;5051074;28;20463;-71
2020/12/31 12:31:28;;;;;;;11.07;5.88;;;6.60;95.70;;;;;;5050940;28;20073;-77
2020/12/31 12:33:54;;;;;;;6.20;3.17;;;6.60;95.50;;;;;;5050809;28;20114;-73
2020/12/31 12:36:19;;;;;;;6.65;3.55;;;6.60;95.50;;;;;;5050819;28;20045;-80
2020/12/31 12:38:45;;;;;;;5.63;3.30;;;6.60;95.40;;;;;;5051257;28;20474;-72
2020/12/31 12:41:10;;;;;;;9.05;4.10;;;6.60;95.50;;;;;;5049857;28;20043;-73
2020/12/31 12:43:36;;;;;;;8.73;4.00;;;6.60;95.60;;;;;;5062355;28;20033;-70
2020/12/31 12:46:02;;;;;;;8.23;3.22;;;6.70;95.20;;;;;;5070783;28;20064;-73
2020/12/31 12:48:27;;;;;;;7.32;3.72;;;6.70;95.20;;;;;;5070545;28;20389;-77
2020/12/31 12:50:53;;;;;;;6.75;3.58;;;6.80;95.10;;;;;;5072601;28;20024;-75
2020/12/31 12:53:18;;;;;;;5.78;3.65;;;6.80;95.00;;;;;;5070703;28;20037;-76
2020/12/31 12:55:44;;;;;;;7.72;4.15;;;6.80;95.10;;;;;;5070678;28;20033;-73